Time;durP1;ratioP1;P1;durP2;ratioP2;P2;SDS_P1;SDS_P2;PMS_P1;PMS_P2;Temp;Humidity;BMP_temperature;BMP_pressure;BME280_temperature;BME280_humidity;BME280_pressure;Samples;Min_cycle;Max_cycle;Signal;HPM_P1;HPM_P2
2023/09/02 00:01:34;;;;;;;5.82;3.50;;;;;;;;;;5117155;27;20485;-59
2023/09/02 00:04:02;;;;;;;6.57;3.40;;;;;;;;;;5132677;27;20034;-59
2023/09/02 00:06:28;;;;;;;7.03;3.25;;;;;;;;;;5132841;27;20469;-60
2023/09/02 00:08:54;;;;;;;5.03;3.63;;;;;;;;;;5124791;27;20030;-60
2023/09/02 00:11:20;;;;;;;8.65;3.40;;;;;;;;;;5097464;28;20035;-59
2023/09/02 00:13:46;;;;;;;5.25;3.03;;;;;;;;;;5110915;28;20105;-59
2023/09/02 00:16:13;;;;;;;5.35;3.53;;;;;;;;;;5133127;27;20079;-58
2023/09/02 00:18:39;;;;;;;10.65;3.88;;;;;;;;;;5128867;27;20019;-59
2023/09/02 00:21:05;;;;;;;4.32;3.35;;;;;;;;;;5128608;27;20031;-59
2023/09/02 00:23:31;;;;;;;6.38;3.58;;;;;;;;;;5117906;28;20023;-59
2023/09/02 00:25:58;;;;;;;5.28;3.03;;;;;;;;;;5095604;28;20043;-59
2023/09/02 00:28:24;;;;;;;6.22;3.53;;;;;;;;;;5097608;28;20024;-59
2023/09/02 00:30:50;;;;;;;6.97;4.13;;;;;;;;;;5104843;28;20432;-59
2023/09/02 00:33:16;;;;;;;7.05;3.33;;;;;;;;;;5112828;28;20032;-59
2023/09/02 00:35:49;;;;;;;6.50;3.60;;;;;;;;;;5099273;28;20028;-58
2023/09/02 00:38:15;;;;;;;9.47;3.63;;;;;;;;;;5092857;28;20012;-58
2023/09/02 00:40:43;;;;;;;8.15;4.57;;;;;;;;;;5098523;28;20048;-59
2023/09/02 00:43:09;;;;;;;6.50;4.40;;;;;;;;;;5110313;28;20031;-59
2023/09/02 00:45:35;;;;;;;4.93;4.07;;;;;;;;;;5107127;28;20543;-59
2023/09/02 00:48:02;;;;;;;6.95;4.28;;;;;;;;;;5103522;28;20066;-58
2023/09/02 00:50:28;;;;;;;6.43;4.00;;;;;;;;;;5116017;27;20477;-58
2023/09/02 00:52:54;;;;;;;5.88;4.03;;;;;;;;;;5116370;28;20034;-58
2023/09/02 00:55:20;;;;;;;6.63;4.22;;;;;;;;;;5115759;28;20423;-58
2023/09/02 00:57:47;;;;;;;5.65;3.67;;;;;;;;;;5121720;27;20023;-60
2023/09/02 01:00:14;;;;;;;8.82;4.50;;;;;;;;;;5110081;27;20020;-59
2023/09/02 01:02:40;;;;;;;4.70;3.75;;;;;;;;;;5099629;28;20035;-59
2023/09/02 01:05:07;;;;;;;9.05;4.05;;;;;;;;;;5109484;28;20480;-59
2023/09/02 01:07:33;;;;;;;7.65;3.72;;;;;;;;;;5105872;27;20161;-60
2023/09/02 01:09:59;;;;;;;7.43;3.22;;;;;;;;;;5110648;27;20368;-59
2023/09/02 01:12:26;;;;;;;8.63;3.08;;;;;;;;;;5103046;28;20036;-59
2023/09/02 01:14:52;;;;;;;7.50;3.38;;;;;;;;;;5106697;28;20028;-59
2023/09/02 01:17:18;;;;;;;7.95;3.00;;;;;;;;;;5096392;28;20043;-59
2023/09/02 01:19:46;;;;;;;7.68;3.53;;;;;;;;;;5096123;28;20024;-59
2023/09/02 01:22:12;;;;;;;5.55;3.47;;;;;;;;;;5108687;28;20024;-60
2023/09/02 01:24:44;;;;;;;9.07;3.60;;;;;;;;;;5113915;27;20061;-60
2023/09/02 01:27:09;;;;;;;6.40;3.17;;;;;;;;;;5116102;28;20024;-59
2023/09/02 01:29:39;;;;;;;4.75;3.17;;;;;;;;;;5109321;28;20098;-59
2023/09/02 01:32:06;;;;;;;5.93;3.55;;;;;;;;;;5105041;28;20033;-60
2023/09/02 01:34:34;;;;;;;5.72;3.25;;;;;;;;;;5107739;28;20028;-59
2023/09/02 01:37:01;;;;;;;5.88;3.05;;;;;;;;;;5108753;28;20024;-60
2023/09/02 01:39:27;;;;;;;7.13;4.18;;;;;;;;;;5114544;27;20063;-58
2023/09/02 01:41:53;;;;;;;5.00;3.45;;;;;;;;;;5098065;28;20024;-58
2023/09/02 01:44:20;;;;;;;4.82;3.33;;;;;;;;;;5098740;28;20541;-59
2023/09/02 01:46:49;;;;;;;4.97;3.50;;;;;;;;;;5114310;27;20492;-59
2023/09/02 01:49:15;;;;;;;7.75;3.97;;;;;;;;;;5105385;27;20019;-59
2023/09/02 01:51:42;;;;;;;7.22;3.85;;;;;;;;;;5111485;28;20374;-59
2023/09/02 01:54:08;;;;;;;9.18;3.67;;;;;;;;;;5106068;28;20020;-58
2023/09/02 01:56:35;;;;;;;5.22;4.07;;;;;;;;;;5107476;28;20032;-58
2023/09/02 01:59:01;;;;;;;8.30;3.38;;;;;;;;;;5112210;27;20024;-59
2023/09/02 02:01:27;;;;;;;6.15;4.07;;;;;;;;;;5093227;28;20027;-59
2023/09/02 02:04:14;;;;;;;10.05;4.53;;;;;;;;;;5118576;27;20114;-59
2023/09/02 02:06:41;;;;;;;6.90;3.85;;;;;;;;;;5093710;28;20039;-59
2023/09/02 02:09:15;;;;;;;8.63;4.05;;;;;;;;;;5109030;28;20063;-59
2023/09/02 02:11:42;;;;;;;8.18;4.03;;;;;;;;;;5106267;28;20035;-59
2023/09/02 02:14:08;;;;;;;5.15;3.60;;;;;;;;;;5112376;27;20026;-59
2023/09/02 02:16:34;;;;;;;10.63;3.88;;;;;;;;;;5112294;28;20389;-59
2023/09/02 02:19:00;;;;;;;6.15;3.50;;;;;;;;;;5109155;28;20025;-59
2023/09/02 02:21:27;;;;;;;8.23;3.58;;;;;;;;;;5113328;28;20028;-59
2023/09/02 02:23:53;;;;;;;7.90;3.55;;;;;;;;;;5105202;28;20054;-59
2023/09/02 02:26:19;;;;;;;6.93;3.60;;;;;;;;;;5096940;28;20056;-59
2023/09/02 02:28:45;;;;;;;9.35;4.03;;;;;;;;;;5096653;28;20059;-59
2023/09/02 02:31:11;;;;;;;7.63;3.42;;;;;;;;;;5105334;28;20449;-59
2023/09/02 02:33:37;;;;;;;5.93;3.47;;;;;;;;;;5106492;28;20032;-59
2023/09/02 02:36:04;;;;;;;7.85;3.88;;;;;;;;;;5098420;28;20040;-58
2023/09/02 02:38:30;;;;;;;8.77;4.38;;;;;;;;;;5094739;28;20438;-59
2023/09/02 02:40:56;;;;;;;8.88;4.05;;;;;;;;;;5095819;28;20362;-58
2023/09/02 02:43:26;;;;;;;5.75;3.53;;;;;;;;;;5112483;28;20024;-59
2023/09/02 02:45:55;;;;;;;9.70;4.15;;;;;;;;;;5102822;28;20036;-59
2023/09/02 02:48:31;;;;;;;8.73;3.60;;;;;;;;;;5096974;28;20028;-59
2023/09/02 02:50:57;;;;;;;6.07;3.88;;;;;;;;;;5114246;28;20022;-58
2023/09/02 02:53:23;;;;;;;7.00;3.45;;;;;;;;;;5099089;28;20028;-59
2023/09/02 02:55:49;;;;;;;6.97;3.88;;;;;;;;;;5094400;28;20024;-59
2023/09/02 02:58:16;;;;;;;6.90;3.85;;;;;;;;;;5098306;27;20024;-58
2023/09/02 03:00:43;;;;;;;4.70;3.78;;;;;;;;;;5105782;28;20034;-59
2023/09/02 03:03:09;;;;;;;5.60;3.50;;;;;;;;;;5107359;28;20517;-60
2023/09/02 03:05:36;;;;;;;6.68;3.88;;;;;;;;;;5109570;28;20039;-60
2023/09/02 03:08:02;;;;;;;5.68;3.65;;;;;;;;;;5111239;27;20043;-59
2023/09/02 03:10:28;;;;;;;6.78;3.72;;;;;;;;;;5099193;27;21667;-59
2023/09/02 03:12:54;;;;;;;6.45;4.13;;;;;;;;;;5098058;27;20480;-59
2023/09/02 03:15:20;;;;;;;7.68;4.18;;;;;;;;;;5111779;27;20035;-59
2023/09/02 03:17:46;;;;;;;6.68;3.83;;;;;;;;;;5115387;27;20042;-59
2023/09/02 03:20:12;;;;;;;7.30;3.85;;;;;;;;;;5116271;27;20478;-59
2023/09/02 03:22:42;;;;;;;7.15;4.20;;;;;;;;;;5107581;28;20055;-59
2023/09/02 03:25:08;;;;;;;4.90;3.60;;;;;;;;;;5103838;28;20036;-59
2023/09/02 03:27:37;;;;;;;6.47;3.90;;;;;;;;;;5122450;27;20015;-59
2023/09/02 03:30:04;;;;;;;5.82;3.67;;;;;;;;;;5108610;28;20481;-60
2023/09/02 03:32:31;;;;;;;5.18;3.10;;;;;;;;;;5101007;28;20027;-59
2023/09/02 03:34:57;;;;;;;8.93;3.33;;;;;;;;;;5102725;28;20017;-60
2023/09/02 03:37:23;;;;;;;4.40;3.85;;;;;;;;;;5093635;28;20518;-59
2023/09/02 03:39:49;;;;;;;5.22;3.60;;;;;;;;;;5103680;28;20473;-60
2023/09/02 03:42:14;;;;;;;6.55;4.15;;;;;;;;;;5093273;28;20030;-59
2023/09/02 03:44:40;;;;;;;5.72;3.80;;;;;;;;;;5100306;28;20023;-59
2023/09/02 03:47:06;;;;;;;6.32;3.83;;;;;;;;;;5093345;28;20051;-60
2023/09/02 03:49:32;;;;;;;7.60;3.85;;;;;;;;;;5097716;28;20381;-59
2023/09/02 03:51:58;;;;;;;8.63;4.53;;;;;;;;;;5094324;28;20085;-59
2023/09/02 03:54:24;;;;;;;6.78;4.03;;;;;;;;;;5106036;28;20423;-59
2023/09/02 03:56:50;;;;;;;8.50;4.63;;;;;;;;;;5099388;28;20020;-59
2023/09/02 03:59:19;;;;;;;9.32;4.63;;;;;;;;;;5123620;27;20024;-59
2023/09/02 04:01:44;;;;;;;6.40;4.13;;;;;;;;;;5101270;28;20027;-59
2023/09/02 04:04:10;;;;;;;8.38;4.78;;;;;;;;;;5100293;27;20022;-59
2023/09/02 04:06:38;;;;;;;8.95;4.40;;;;;;;;;;5108786;27;20107;-59
2023/09/02 04:09:07;;;;;;;6.80;3.80;;;;;;;;;;5094044;28;20036;-59
2023/09/02 04:11:33;;;;;;;9.40;4.85;;;;;;;;;;5092238;28;20107;-59
2023/09/02 04:14:00;;;;;;;7.47;4.53;;;;;;;;;;5099226;28;20098;-59
2023/09/02 04:16:26;;;;;;;5.40;4.35;;;;;;;;;;5102583;27;20034;-60
2023/09/02 04:18:52;;;;;;;10.65;5.43;;;;;;;;;;5116133;27;20530;-59
2023/09/02 04:21:19;;;;;;;10.40;5.15;;;;;;;;;;5106356;27;20028;-60
2023/09/02 04:23:46;;;;;;;7.22;4.15;;;;;;;;;;5110476;28;20054;-60
2023/09/02 04:26:14;;;;;;;7.95;4.07;;;;;;;;;;5098375;28;20493;-60
2023/09/02 04:28:40;;;;;;;5.53;4.38;;;;;;;;;;5104445;28;20469;-60
2023/09/02 04:31:06;;;;;;;8.07;4.57;;;;;;;;;;5109451;28;20415;-59
2023/09/02 04:33:32;;;;;;;6.43;5.20;;;;;;;;;;5114130;28;20375;-59
2023/09/02 04:36:00;;;;;;;7.63;4.60;;;;;;;;;;5128721;28;20023;-60
2023/09/02 04:38:26;;;;;;;8.55;4.70;;;;;;;;;;5133478;28;20381;-60
2023/09/02 04:40:52;;;;;;;5.45;4.35;;;;;;;;;;5119819;28;20568;-59
2023/09/02 04:43:18;;;;;;;9.60;5.03;;;;;;;;;;5126638;28;20044;-59
2023/09/02 04:45:44;;;;;;;5.80;4.47;;;;;;;;;;5115429;28;20032;-59
2023/09/02 04:48:11;;;;;;;7.80;4.20;;;;;;;;;;5111788;28;20031;-58
2023/09/02 04:50:37;;;;;;;10.02;4.72;;;;;;;;;;5132630;28;20080;-59
2023/09/02 04:53:03;;;;;;;8.63;5.30;;;;;;;;;;5133793;28;20019;-59
2023/09/02 04:55:30;;;;;;;6.57;4.90;;;;;;;;;;5129107;28;20030;-59
2023/09/02 04:57:56;;;;;;;7.57;4.32;;;;;;;;;;5101175;28;20365;-59
2023/09/02 05:00:31;;;;;;;7.60;5.10;;;;;;;;;;5105597;28;20481;-59
2023/09/02 05:02:57;;;;;;;10.38;5.95;;;;;;;;;;5103467;28;20020;-59
2023/09/02 05:05:24;;;;;;;11.55;6.43;;;;;;;;;;5101249;28;20031;-59
2023/09/02 05:07:50;;;;;;;8.18;4.80;;;;;;;;;;5106451;28;20491;-59
2023/09/02 05:10:16;;;;;;;7.78;4.50;;;;;;;;;;5094625;28;20023;-59
2023/09/02 05:12:42;;;;;;;6.72;4.70;;;;;;;;;;5091748;28;20032;-59
2023/09/02 05:15:08;;;;;;;10.27;5.03;;;;;;;;;;5108228;28;20027;-59
2023/09/02 05:17:35;;;;;;;10.15;5.13;;;;;;;;;;5111318;28;20072;-58
2023/09/02 05:20:03;;;;;;;6.88;4.85;;;;;;;;;;5093801;28;20024;-59
2023/09/02 05:22:29;;;;;;;9.40;4.63;;;;;;;;;;5092820;28;20061;-59
2023/09/02 05:24:55;;;;;;;6.90;4.93;;;;;;;;;;5095204;28;20024;-59
2023/09/02 05:27:21;;;;;;;8.70;4.40;;;;;;;;;;5109897;28;20031;-59
2023/09/02 05:29:47;;;;;;;12.35;5.35;;;;;;;;;;5110027;28;20144;-59
2023/09/02 05:32:13;;;;;;;8.23;5.90;;;;;;;;;;5102719;28;20150;-58
2023/09/02 05:34:40;;;;;;;9.63;5.60;;;;;;;;;;5121699;27;20019;-59
2023/09/02 05:37:06;;;;;;;8.98;5.40;;;;;;;;;;5107748;28;20423;-59
2023/09/02 05:39:32;;;;;;;7.85;5.15;;;;;;;;;;5105043;28;20028;-59
2023/09/02 05:41:58;;;;;;;7.93;5.22;;;;;;;;;;5098075;28;20172;-59
2023/09/02 05:44:24;;;;;;;10.10;5.55;;;;;;;;;;5096142;28;20027;-59
2023/09/02 05:46:50;;;;;;;12.68;6.35;;;;;;;;;;5105782;28;20126;-58
2023/09/02 05:49:16;;;;;;;10.43;6.43;;;;;;;;;;5095766;28;20019;-59
2023/09/02 05:51:42;;;;;;;10.75;5.70;;;;;;;;;;5099039;28;20057;-59
2023/09/02 05:54:09;;;;;;;15.90;10.25;;;;;;;;;;5107710;28;20030;-60
2023/09/02 05:56:35;;;;;;;11.10;6.40;;;;;;;;;;5095914;28;20025;-60
2023/09/02 05:59:02;;;;;;;13.57;5.90;;;;;;;;;;5121173;27;20473;-60
2023/09/02 06:01:28;;;;;;;10.30;6.25;;;;;;;;;;5113157;28;20031;-59
2023/09/02 06:03:54;;;;;;;15.85;7.25;;;;;;;;;;5104699;28;20064;-60
2023/09/02 06:06:20;;;;;;;10.77;6.00;;;;;;;;;;5096865;28;20036;-59
2023/09/02 06:08:46;;;;;;;12.32;6.22;;;;;;;;;;5102092;28;20024;-59
2023/09/02 06:11:12;;;;;;;15.38;7.72;;;;;;;;;;5100553;28;20514;-59
2023/09/02 06:13:38;;;;;;;6.65;5.78;;;;;;;;;;5105947;28;20174;-59
2023/09/02 06:16:05;;;;;;;11.32;6.55;;;;;;;;;;5112973;28;20020;-59
2023/09/02 06:18:31;;;;;;;12.02;6.53;;;;;;;;;;5112479;28;20487;-59
2023/09/02 06:20:57;;;;;;;11.35;6.65;;;;;;;;;;5129886;27;20081;-59
2023/09/02 06:23:27;;;;;;;14.65;7.78;;;;;;;;;;5135901;27;20020;-59
2023/09/02 06:25:59;;;;;;;12.52;6.47;;;;;;;;;;5131107;27;20051;-59
2023/09/02 06:28:26;;;;;;;11.88;6.70;;;;;;;;;;5118259;27;21851;-60
2023/09/02 06:30:52;;;;;;;8.45;6.68;;;;;;;;;;5125912;27;20080;-60
2023/09/02 06:33:20;;;;;;;9.88;7.00;;;;;;;;;;5116551;27;20425;-60
2023/09/02 06:35:46;;;;;;;9.73;6.95;;;;;;;;;;5127243;27;20028;-59
2023/09/02 06:38:12;;;;;;;12.80;6.78;;;;;;;;;;5126451;27;20026;-59
2023/09/02 06:40:38;;;;;;;10.48;6.38;;;;;;;;;;5135566;27;20027;-60
2023/09/02 06:43:04;;;;;;;8.77;6.80;;;;;;;;;;5131773;27;20023;-60
2023/09/02 06:45:30;;;;;;;11.85;6.53;;;;;;;;;;5134627;27;20042;-59
2023/09/02 06:47:56;;;;;;;12.23;7.35;;;;;;;;;;5118390;27;20075;-59
2023/09/02 06:50:22;;;;;;;9.27;6.95;;;;;;;;;;5134947;27;20134;-59
2023/09/02 06:52:48;;;;;;;8.43;6.43;;;;;;;;;;5127244;27;20019;-59
2023/09/02 06:55:17;;;;;;;10.52;6.13;;;;;;;;;;5122816;27;20073;-59
2023/09/02 06:57:43;;;;;;;9.63;5.82;;;;;;;;;;5114458;27;20035;-60
2023/09/02 07:00:10;;;;;;;14.18;6.75;;;;;;;;;;5109840;27;20069;-60
2023/09/02 07:02:36;;;;;;;10.48;6.05;;;;;;;;;;5115577;27;20031;-59
2023/09/02 07:05:02;;;;;;;11.68;6.32;;;;;;;;;;5106607;28;20023;-59
2023/09/02 07:07:28;;;;;;;10.18;7.32;;;;;;;;;;5108604;27;20023;-59
2023/09/02 07:09:54;;;;;;;9.10;6.35;;;;;;;;;;5094200;28;20097;-60
2023/09/02 07:12:20;;;;;;;8.30;5.63;;;;;;;;;;5093847;28;20481;-59
2023/09/02 07:14:46;;;;;;;10.25;6.80;;;;;;;;;;5094027;28;20073;-60
2023/09/02 07:17:12;;;;;;;8.35;6.22;;;;;;;;;;5100853;28;20077;-59
2023/09/02 07:19:38;;;;;;;9.30;6.05;;;;;;;;;;5094950;28;20027;-60
2023/09/02 07:22:04;;;;;;;8.75;6.57;;;;;;;;;;5105788;28;20505;-60
2023/09/02 07:24:30;;;;;;;9.40;6.07;;;;;;;;;;5096901;28;20029;-60
2023/09/02 07:26:56;;;;;;;9.82;6.85;;;;;;;;;;5102988;28;20078;-59
2023/09/02 07:29:22;;;;;;;10.35;6.03;;;;;;;;;;5093772;28;20024;-60
2023/09/02 07:31:48;;;;;;;8.40;5.68;;;;;;;;;;5106208;28;20480;-59
2023/09/02 07:34:14;;;;;;;11.40;6.85;;;;;;;;;;5112084;28;20027;-59
2023/09/02 07:36:42;;;;;;;8.40;6.43;;;;;;;;;;5104647;27;20028;-59
2023/09/02 07:39:08;;;;;;;9.20;6.28;;;;;;;;;;5113820;27;20496;-60
2023/09/02 07:41:34;;;;;;;9.93;6.25;;;;;;;;;;5107846;27;20032;-60
2023/09/02 07:44:00;;;;;;;8.40;6.13;;;;;;;;;;5113292;27;20027;-59
2023/09/02 07:46:26;;;;;;;15.45;7.72;;;;;;;;;;5112557;27;20489;-61
2023/09/02 07:48:52;;;;;;;11.90;6.22;;;;;;;;;;5097934;28;20469;-61
2023/09/02 07:51:18;;;;;;;13.70;7.95;;;;;;;;;;5093255;28;20512;-61
2023/09/02 07:53:47;;;;;;;11.48;7.05;;;;;;;;;;5105100;27;20024;-61
2023/09/02 07:56:13;;;;;;;12.60;7.13;;;;;;;;;;5090552;27;20060;-61
2023/09/02 07:58:42;;;;;;;10.38;7.65;;;;;;;;;;5134155;27;20473;-60
2023/09/02 08:01:08;;;;;;;11.80;7.75;;;;;;;;;;5119486;27;20047;-60
2023/09/02 08:03:34;;;;;;;11.20;7.90;;;;;;;;;;5094873;28;20106;-61
2023/09/02 08:06:09;;;;;;;11.10;7.65;;;;;;;;;;5106694;28;20549;-60
2023/09/02 08:08:35;;;;;;;14.23;8.27;;;;;;;;;;5095964;28;20103;-60
2023/09/02 08:11:05;;;;;;;9.23;7.53;;;;;;;;;;5119572;27;20846;-63
2023/09/02 08:13:31;;;;;;;10.88;8.23;;;;;;;;;;5115925;28;20027;-62
2023/09/02 08:15:58;;;;;;;12.30;8.50;;;;;;;;;;5094260;28;20030;-63
2023/09/02 08:18:24;;;;;;;9.90;6.47;;;;;;;;;;5108746;28;20023;-62
2023/09/02 08:20:50;;;;;;;14.07;7.85;;;;;;;;;;5112352;28;20038;-62
2023/09/02 08:23:16;;;;;;;9.23;6.13;;;;;;;;;;5105045;27;20385;-63
2023/09/02 08:25:42;;;;;;;12.27;7.22;;;;;;;;;;5098592;28;20123;-62
2023/09/02 08:28:08;;;;;;;13.65;8.88;;;;;;;;;;5110525;28;20426;-63
2023/09/02 08:30:34;;;;;;;14.43;10.07;;;;;;;;;;5103319;28;20540;-63
2023/09/02 08:32:59;;;;;;;9.60;8.50;;;;;;;;;;5110016;28;20103;-63
2023/09/02 08:35:25;;;;;;;16.25;10.60;;;;;;;;;;5106976;28;20024;-63
2023/09/02 08:37:51;;;;;;;10.50;8.77;;;;;;;;;;5089910;28;20024;-64
2023/09/02 08:40:17;;;;;;;11.90;8.80;;;;;;;;;;5119564;28;20076;-65
2023/09/02 08:42:44;;;;;;;16.92;11.05;;;;;;;;;;5100050;28;20511;-61
2023/09/02 08:45:11;;;;;;;14.30;10.07;;;;;;;;;;5120965;28;20365;-61
2023/09/02 08:47:39;;;;;;;15.88;10.45;;;;;;;;;;5113579;28;20438;-62
2023/09/02 08:50:06;;;;;;;13.82;9.75;;;;;;;;;;5120074;28;20027;-61
2023/09/02 08:52:32;;;;;;;13.98;10.25;;;;;;;;;;5115104;28;20093;-62
2023/09/02 08:54:58;;;;;;;13.82;11.30;;;;;;;;;;5117387;28;20563;-60
2023/09/02 08:57:24;;;;;;;21.33;11.00;;;;;;;;;;5109306;28;20084;-64
2023/09/02 08:59:50;;;;;;;11.15;9.98;;;;;;;;;;5096010;28;20020;-65
2023/09/02 09:02:18;;;;;;;12.93;9.40;;;;;;;;;;5109484;28;20072;-64
2023/09/02 09:04:48;;;;;;;10.77;8.48;;;;;;;;;;5119806;28;20043;-67
2023/09/02 09:07:14;;;;;;;13.48;10.35;;;;;;;;;;5122354;28;20031;-60
2023/09/02 09:09:42;;;;;;;13.50;9.07;;;;;;;;;;5117249;27;20439;-63
2023/09/02 09:12:09;;;;;;;15.85;10.07;;;;;;;;;;5124298;27;20028;-60
2023/09/02 09:14:37;;;;;;;18.80;11.20;;;;;;;;;;5116941;27;20024;-61
2023/09/02 09:17:03;;;;;;;14.02;10.48;;;;;;;;;;5118652;27;20111;-63
2023/09/02 09:19:30;;;;;;;18.58;11.75;;;;;;;;;;5128281;27;20085;-60
2023/09/02 09:21:57;;;;;;;13.95;10.90;;;;;;;;;;5110466;27;20489;-60
2023/09/02 09:24:23;;;;;;;14.57;13.00;;;;;;;;;;5109625;27;20032;-46
2023/09/02 09:26:50;;;;;;;14.38;11.63;;;;;;;;;;5131508;27;20031;-53
2023/09/02 09:29:17;;;;;;;14.25;10.52;;;;;;;;;;5117351;27;20476;-52
2023/09/02 09:31:43;;;;;;;16.42;9.73;;;;;;;;;;5132082;27;20059;-53
2023/09/02 09:34:10;;;;;;;17.02;12.75;;;;;;;;;;5120075;27;20020;-50
2023/09/02 09:36:36;;;;;;;12.38;8.95;;;;;;;;;;5110172;27;20555;-51
2023/09/02 09:39:06;;;;;;;12.57;9.68;;;;;;;;;;5130182;27;20047;-54
2023/09/02 09:41:33;;;;;;;12.93;11.27;;;;;;;;;;5119106;27;20110;-51
2023/09/02 09:44:07;;;;;;;17.70;10.20;;;;;;;;;;5130103;27;20038;-50
2023/09/02 09:46:49;;;;;;;16.08;10.07;;;;;;;;;;5118940;27;20050;-51
2023/09/02 09:49:24;;;;;;;12.88;10.77;;;;;;;;;;5131155;27;20020;-50
2023/09/02 09:51:51;;;;;;;13.68;11.32;;;;;;;;;;5105859;27;20023;-52
2023/09/02 09:54:17;;;;;;;14.60;9.43;;;;;;;;;;5130778;27;20498;-52
2023/09/02 09:56:44;;;;;;;12.10;9.52;;;;;;;;;;5095758;28;20114;-52
2023/09/02 09:59:10;;;;;;;11.93;8.57;;;;;;;;;;5113547;27;20028;-53
2023/09/02 10:01:37;;;;;;;12.02;9.15;;;;;;;;;;5128404;27;20032;-53
2023/09/02 10:04:09;;;;;;;9.93;8.93;;;;;;;;;;5111265;27;20047;-51
2023/09/02 10:06:41;;;;;;;14.80;10.95;;;;;;;;;;5114353;27;20031;-52
2023/09/02 10:09:07;;;;;;;12.65;8.00;;;;;;;;;;5105998;27;20359;-52
2023/09/02 10:11:33;;;;;;;14.50;8.50;;;;;;;;;;5101270;27;20039;-55
2023/09/02 10:14:00;;;;;;;12.75;9.45;;;;;;;;;;5108787;28;20028;-52
2023/09/02 10:16:26;;;;;;;10.68;8.23;;;;;;;;;;5121329;27;20511;-54
2023/09/02 10:18:52;;;;;;;13.00;9.90;;;;;;;;;;5116965;27;20038;-57
2023/09/02 10:21:19;;;;;;;14.77;10.88;;;;;;;;;;5118529;27;20375;-56
2023/09/02 10:23:49;;;;;;;14.93;7.88;;;;;;;;;;5106425;28;20081;-57
2023/09/02 10:26:36;;;;;;;10.35;6.60;;;;;;;;;;5115460;28;20081;-56
2023/09/02 10:29:06;;;;;;;12.48;9.45;;;;;;;;;;5106979;28;20118;-58
2023/09/02 10:31:36;;;;;;;13.55;9.52;;;;;;;;;;5103117;28;20073;-69
2023/09/02 10:34:08;;;;;;;12.23;9.90;;;;;;;;;;5111148;28;20488;-66
2023/09/02 10:36:37;;;;;;;13.55;11.98;;;;;;;;;;5106688;28;20051;-66
2023/09/02 10:39:03;;;;;;;12.25;9.40;;;;;;;;;;5101028;28;20481;-67
2023/09/02 10:41:38;;;;;;;12.95;10.35;;;;;;;;;;5094640;28;20067;-66
2023/09/02 10:44:05;;;;;;;12.82;8.80;;;;;;;;;;5095485;28;20493;-66
2023/09/02 10:46:31;;;;;;;13.15;8.85;;;;;;;;;;5112978;28;20100;-66
2023/09/02 10:48:59;;;;;;;11.48;7.10;;;;;;;;;;5101914;28;20044;-66
2023/09/02 10:51:25;;;;;;;11.75;7.95;;;;;;;;;;5104959;28;20039;-65
2023/09/02 10:53:51;;;;;;;9.73;6.45;;;;;;;;;;5110458;28;20031;-64
2023/09/02 10:56:27;;;;;;;6.78;6.03;;;;;;;;;;5115191;27;20030;-62
2023/09/02 10:58:53;;;;;;;10.27;6.40;;;;;;;;;;5107677;27;20122;-62
2023/09/02 11:01:20;;;;;;;7.60;5.40;;;;;;;;;;5115730;27;20095;-62
2023/09/02 11:03:47;;;;;;;13.35;7.30;;;;;;;;;;5123607;27;20027;-62
2023/09/02 11:06:15;;;;;;;8.18;5.93;;;;;;;;;;5113358;27;20035;-62
2023/09/02 11:08:51;;;;;;;12.75;7.72;;;;;;;;;;5106060;28;20505;-63
2023/09/02 11:11:20;;;;;;;12.43;6.35;;;;;;;;;;5095872;28;20035;-62
2023/09/02 11:14:05;;;;;;;12.02;6.63;;;;;;;;;;5091116;27;20062;-63
2023/09/02 11:16:33;;;;;;;12.05;8.13;;;;;;;;;;5117375;27;20091;-63
2023/09/02 11:19:08;;;;;;;9.52;6.63;;;;;;;;;;5122025;27;20031;-63
2023/09/02 11:21:40;;;;;;;11.40;7.30;;;;;;;;;;5104406;27;20031;-63
2023/09/02 11:24:33;;;;;;;12.13;7.53;;;;;;;;;;5122194;27;20027;-63
2023/09/02 11:26:59;;;;;;;11.05;6.10;;;;;;;;;;5107206;27;20154;-62
2023/09/02 11:29:29;;;;;;;9.00;6.20;;;;;;;;;;5115318;27;20513;-62
2023/09/02 11:31:56;;;;;;;6.93;5.75;;;;;;;;;;5111405;27;20032;-63
2023/09/02 11:34:22;;;;;;;10.90;5.95;;;;;;;;;;5115380;27;20015;-63
2023/09/02 11:36:50;;;;;;;7.15;5.50;;;;;;;;;;5118638;27;20032;-64
2023/09/02 11:39:16;;;;;;;8.20;6.00;;;;;;;;;;5125226;27;20055;-64
2023/09/02 11:41:42;;;;;;;7.03;5.20;;;;;;;;;;5123617;27;20441;-64
2023/09/02 11:44:12;;;;;;;8.88;5.80;;;;;;;;;;5101281;27;20031;-64
2023/09/02 11:46:39;;;;;;;11.50;6.50;;;;;;;;;;5100434;28;20455;-64
2023/09/02 11:49:11;;;;;;;9.57;5.65;;;;;;;;;;5112846;27;20027;-64
2023/09/02 11:51:38;;;;;;;8.23;5.00;;;;;;;;;;5114479;27;20031;-63
2023/09/02 11:54:04;;;;;;;8.15;5.55;;;;;;;;;;5120679;27;20030;-63
2023/09/02 11:56:30;;;;;;;5.35;4.68;;;;;;;;;;5121395;27;20110;-63
2023/09/02 11:58:56;;;;;;;7.38;5.60;;;;;;;;;;5119378;27;20217;-63
2023/09/02 12:01:22;;;;;;;6.07;5.22;;;;;;;;;;5111072;27;20099;-63
2023/09/02 12:03:48;;;;;;;6.53;5.20;;;;;;;;;;5129379;27;20023;-63
2023/09/02 12:06:14;;;;;;;7.72;4.80;;;;;;;;;;5098232;28;20044;-63
2023/09/02 12:08:40;;;;;;;6.90;4.90;;;;;;;;;;5118178;27;20027;-65
2023/09/02 12:11:06;;;;;;;8.02;5.50;;;;;;;;;;5112082;27;20028;-67
2023/09/02 12:13:32;;;;;;;8.45;5.07;;;;;;;;;;5095517;28;20020;-67
2023/09/02 12:15:58;;;;;;;6.75;4.78;;;;;;;;;;5125175;27;20023;-67
2023/09/02 12:18:24;;;;;;;6.45;5.22;;;;;;;;;;5101563;28;20031;-66
2023/09/02 12:20:51;;;;;;;6.32;5.32;;;;;;;;;;5076472;27;20027;-66
2023/09/02 12:23:17;;;;;;;6.85;5.05;;;;;;;;;;5117284;28;20099;-67
2023/09/02 12:25:43;;;;;;;5.45;4.93;;;;;;;;;;5111765;27;20122;-66
2023/09/02 12:28:10;;;;;;;9.23;5.25;;;;;;;;;;5118927;28;20498;-66
2023/09/02 12:30:36;;;;;;;6.20;5.38;;;;;;;;;;5122225;28;20361;-66
2023/09/02 12:33:03;;;;;;;8.52;5.20;;;;;;;;;;5112142;28;20098;-66
2023/09/02 12:35:29;;;;;;;8.88;4.75;;;;;;;;;;5115183;28;20039;-66
2023/09/02 12:38:06;;;;;;;6.07;4.70;;;;;;;;;;5102968;28;20019;-66
2023/09/02 12:40:33;;;;;;;5.28;4.70;;;;;;;;;;5111434;28;20035;-66
2023/09/02 12:43:00;;;;;;;7.93;4.88;;;;;;;;;;5125632;27;20023;-67
2023/09/02 12:45:40;;;;;;;5.65;4.60;;;;;;;;;;5112213;27;20430;-65
2023/09/02 12:48:07;;;;;;;5.53;4.80;;;;;;;;;;5118398;27;20388;-65
2023/09/02 12:50:34;;;;;;;5.80;5.13;;;;;;;;;;5122608;27;20031;-65
2023/09/02 12:53:03;;;;;;;6.43;5.28;;;;;;;;;;5129391;27;20045;-65
2023/09/02 12:55:30;;;;;;;7.43;5.03;;;;;;;;;;5118724;27;20046;-65
2023/09/02 12:57:56;;;;;;;7.90;6.30;;;;;;;;;;5115252;27;20028;-65
2023/09/02 13:00:22;;;;;;;6.15;5.55;;;;;;;;;;5125040;27;20020;-65
2023/09/02 13:02:49;;;;;;;7.50;6.50;;;;;;;;;;5099886;28;20509;-65
2023/09/02 13:05:15;;;;;;;7.82;5.57;;;;;;;;;;5117019;27;20077;-65
2023/09/02 13:07:41;;;;;;;7.15;5.40;;;;;;;;;;5106259;27;20055;-65
2023/09/02 13:10:11;;;;;;;5.65;5.05;;;;;;;;;;5108267;27;20094;-66
2023/09/02 13:12:38;;;;;;;6.93;6.32;;;;;;;;;;5127008;27;20500;-65
2023/09/02 13:15:04;;;;;;;6.57;5.80;;;;;;;;;;5118375;27;20028;-66
2023/09/02 13:17:30;;;;;;;6.70;5.70;;;;;;;;;;5134316;27;20078;-65
2023/09/02 13:19:56;;;;;;;7.22;5.63;;;;;;;;;;5117488;27;20461;-65
2023/09/02 13:22:22;;;;;;;6.65;6.05;;;;;;;;;;5129823;27;20023;-65
2023/09/02 13:24:50;;;;;;;6.13;5.05;;;;;;;;;;5128261;27;20047;-65
2023/09/02 13:27:17;;;;;;;6.60;5.30;;;;;;;;;;5108870;27;20043;-66
2023/09/02 13:29:43;;;;;;;5.88;5.38;;;;;;;;;;5121794;27;20019;-66
2023/09/02 13:32:10;;;;;;;7.57;6.78;;;;;;;;;;5134370;27;20031;-66
2023/09/02 13:34:36;;;;;;;6.95;6.35;;;;;;;;;;5122627;27;20026;-66
2023/09/02 13:37:02;;;;;;;6.05;5.55;;;;;;;;;;5126070;27;20028;-66
2023/09/02 13:39:29;;;;;;;6.13;5.63;;;;;;;;;;5104043;27;20106;-65
2023/09/02 13:41:55;;;;;;;6.22;5.63;;;;;;;;;;5120123;27;20030;-66
2023/09/02 13:44:22;;;;;;;7.20;5.88;;;;;;;;;;5130398;27;20118;-66
2023/09/02 13:46:50;;;;;;;8.23;6.55;;;;;;;;;;5096230;28;20451;-65
2023/09/02 13:49:16;;;;;;;6.10;5.63;;;;;;;;;;5119234;27;20099;-66
2023/09/02 13:51:42;;;;;;;5.93;5.40;;;;;;;;;;5113270;27;20103;-66
2023/09/02 13:54:10;;;;;;;5.72;5.22;;;;;;;;;;5118659;27;20446;-66
2023/09/02 13:56:36;;;;;;;6.60;5.85;;;;;;;;;;5122726;27;20027;-66
2023/09/02 13:59:02;;;;;;;6.20;5.63;;;;;;;;;;5116436;27;20060;-66
2023/09/02 14:01:30;;;;;;;6.65;5.93;;;;;;;;;;5103083;28;20024;-66
2023/09/02 14:03:56;;;;;;;5.88;5.32;;;;;;;;;;5110663;27;20027;-66
2023/09/02 14:06:22;;;;;;;8.50;5.57;;;;;;;;;;5118490;27;20035;-64
2023/09/02 14:08:48;;;;;;;6.32;5.80;;;;;;;;;;5102282;27;20031;-64
2023/09/02 14:11:16;;;;;;;6.28;5.68;;;;;;;;;;5109831;27;20645;-64
2023/09/02 14:13:43;;;;;;;7.18;5.55;;;;;;;;;;5095326;27;20022;-64
2023/09/02 14:16:09;;;;;;;6.22;5.70;;;;;;;;;;5112947;27;20103;-64
2023/09/02 14:18:35;;;;;;;6.03;5.50;;;;;;;;;;5107873;27;20035;-64
2023/09/02 14:21:01;;;;;;;6.22;5.72;;;;;;;;;;5114077;27;20025;-64
2023/09/02 14:23:27;;;;;;;6.72;5.20;;;;;;;;;;5115386;27;20059;-64
2023/09/02 14:25:53;;;;;;;6.75;4.90;;;;;;;;;;5092972;28;20090;-64
2023/09/02 14:28:22;;;;;;;6.10;4.93;;;;;;;;;;5108785;27;20015;-62
2023/09/02 14:30:48;;;;;;;4.95;4.65;;;;;;;;;;5107389;27;20026;-65
2023/09/02 14:33:14;;;;;;;5.60;5.10;;;;;;;;;;5113912;27;20485;-71
2023/09/02 14:35:40;;;;;;;5.97;5.47;;;;;;;;;;5118364;27;20038;-63
2023/09/02 14:38:07;;;;;;;8.05;5.28;;;;;;;;;;5123645;27;20476;-67